Time;durP1;ratioP1;P1;durP2;ratioP2;P2;SDS_P1;SDS_P2;PMS_P1;PMS_P2;Temp;Humidity;BMP_temperature;BMP_pressure;BME280_temperature;BME280_humidity;BME280_pressure;Samples;Min_cycle;Max_cycle;Signal;HPM_P1;HPM_P2
2021/07/29 00:01:57;;;;;;;5.63;1.20;;;15.20;97.00;;;;;;5031457;28;20022;-68
2021/07/29 00:04:23;;;;;;;4.55;1.35;;;15.20;96.60;;;;;;5029146;28;20032;-68
2021/07/29 00:06:48;;;;;;;4.00;0.90;;;15.30;96.60;;;;;;5023303;28;20051;-68
2021/07/29 00:09:14;;;;;;;3.78;1.27;;;15.30;96.50;;;;;;5032938;28;20037;-68
2021/07/29 00:11:39;;;;;;;3.85;0.90;;;15.30;96.40;;;;;;5031279;28;20087;-68
2021/07/29 00:14:05;;;;;;;3.72;1.13;;;15.40;96.60;;;;;;5032199;28;20420;-68
2021/07/29 00:16:33;;;;;;;1.80;0.63;;;15.40;96.30;;;;;;5030797;28;20104;-68
2021/07/29 00:19:17;;;;;;;2.67;0.82;;;15.40;96.20;;;;;;5032594;28;20021;-69
2021/07/29 00:21:44;;;;;;;2.58;0.95;;;15.40;96.20;;;;;;5030491;28;20487;-68
2021/07/29 00:24:10;;;;;;;5.38;0.80;;;15.40;96.20;;;;;;5031659;28;20506;-67
2021/07/29 00:26:37;;;;;;;4.40;0.73;;;15.30;96.20;;;;;;5032094;28;20041;-68
2021/07/29 00:29:02;;;;;;;6.43;1.05;;;15.30;96.20;;;;;;5033073;28;20022;-68
2021/07/29 00:31:32;;;;;;;6.00;1.40;;;15.20;96.20;;;;;;5030035;28;20017;-68
2021/07/29 00:33:58;;;;;;;3.05;0.80;;;15.20;96.20;;;;;;5028858;28;20029;-68
2021/07/29 00:36:24;;;;;;;5.65;0.77;;;15.20;96.30;;;;;;5032344;28;20053;-68
2021/07/29 00:38:50;;;;;;;5.32;0.75;;;15.20;96.30;;;;;;5031723;28;20388;-68
2021/07/29 00:41:16;;;;;;;3.90;1.13;;;15.20;96.30;;;;;;5028466;28;20029;-68
2021/07/29 00:43:42;;;;;;;4.50;0.90;;;15.20;96.20;;;;;;5032666;28;20029;-68
2021/07/29 00:46:08;;;;;;;4.28;0.93;;;15.10;96.20;;;;;;5031011;28;20083;-68
2021/07/29 00:48:34;;;;;;;5.30;0.90;;;15.10;96.20;;;;;;5031723;28;20021;-68
2021/07/29 00:51:00;;;;;;;3.88;0.80;;;15.10;96.20;;;;;;5030776;28;20113;-68
2021/07/29 00:53:28;;;;;;;5.38;0.90;;;15.10;96.20;;;;;;5030437;28;20048;-68
2021/07/29 00:55:55;;;;;;;6.38;0.90;;;15.10;96.20;;;;;;5029274;28;20423;-68
2021/07/29 00:58:20;;;;;;;6.63;1.08;;;15.00;96.20;;;;;;5036528;28;20025;-68
2021/07/29 01:00:46;;;;;;;6.25;1.63;;;15.00;96.20;;;;;;5032521;28;20499;-67
2021/07/29 01:03:11;;;;;;;8.25;0.90;;;15.00;96.20;;;;;;5034269;28;20026;-68
2021/07/29 01:05:37;;;;;;;4.72;0.80;;;15.00;96.20;;;;;;5034213;28;20483;-68
2021/07/29 01:08:03;;;;;;;2.42;0.85;;;15.00;96.30;;;;;;5036117;28;20416;-67
2021/07/29 01:10:28;;;;;;;4.80;0.85;;;15.00;96.30;;;;;;5033528;28;20040;-68
2021/07/29 01:12:54;;;;;;;5.07;1.00;;;15.00;96.30;;;;;;5035022;28;20357;-68
2021/07/29 01:15:19;;;;;;;3.55;0.85;;;15.00;96.30;;;;;;5033915;28;20048;-68
2021/07/29 01:17:45;;;;;;;3.90;0.90;;;14.90;96.30;;;;;;5035019;28;20668;-68
2021/07/29 01:20:19;;;;;;;4.35;0.90;;;15.00;96.40;;;;;;5034984;28;20036;-68
2021/07/29 01:22:44;;;;;;;7.20;1.20;;;15.00;96.40;;;;;;5034269;28;20500;-68
2021/07/29 01:25:10;;;;;;;6.72;1.40;;;15.00;96.40;;;;;;5034149;28;20116;-68
2021/07/29 01:27:37;;;;;;;6.07;0.85;;;15.00;96.50;;;;;;5035092;28;20029;-68
2021/07/29 01:30:03;;;;;;;3.22;0.70;;;15.00;96.50;;;;;;5034322;28;20126;-69
2021/07/29 01:32:29;;;;;;;4.65;1.35;;;15.00;96.50;;;;;;5032787;28;20113;-68
2021/07/29 01:34:56;;;;;;;3.97;0.90;;;15.00;96.50;;;;;;5034361;28;20029;-68
2021/07/29 01:37:21;;;;;;;4.35;0.85;;;15.00;96.70;;;;;;5035887;28;20076;-68
2021/07/29 01:39:47;;;;;;;5.57;0.98;;;15.10;96.40;;;;;;5034477;28;20396;-69
2021/07/29 01:42:12;;;;;;;4.82;0.77;;;15.10;96.40;;;;;;5034428;28;20104;-68
2021/07/29 01:44:38;;;;;;;5.18;0.90;;;15.00;96.30;;;;;;5022714;28;20424;-69
2021/07/29 01:47:04;;;;;;;6.15;1.15;;;15.10;96.30;;;;;;5033942;28;20041;-69
2021/07/29 01:49:29;;;;;;;4.95;1.05;;;15.10;96.30;;;;;;5034400;28;20049;-68
2021/07/29 01:51:55;;;;;;;4.18;0.82;;;15.00;96.20;;;;;;5034534;28;20087;-68
2021/07/29 01:54:20;;;;;;;7.85;1.60;;;15.00;96.20;;;;;;5033707;28;20383;-69
2021/07/29 01:56:46;;;;;;;2.42;0.70;;;15.00;96.20;;;;;;5035467;28;20030;-69
2021/07/29 01:59:11;;;;;;;5.15;1.00;;;15.00;96.20;;;;;;5033448;28;20450;-68
2021/07/29 02:01:37;;;;;;;3.40;0.90;;;14.90;96.20;;;;;;5033566;28;20037;-68
2021/07/29 02:04:03;;;;;;;6.43;1.10;;;14.90;96.30;;;;;;5033190;28;20042;-68
2021/07/29 02:06:29;;;;;;;8.63;1.23;;;14.90;96.40;;;;;;5030791;28;20551;-69
2021/07/29 02:08:55;;;;;;;5.68;1.10;;;14.90;96.40;;;;;;5035021;28;20036;-68
2021/07/29 02:11:21;;;;;;;6.55;1.05;;;14.90;96.40;;;;;;5033658;28;20130;-68
2021/07/29 02:13:46;;;;;;;5.65;0.77;;;14.90;96.50;;;;;;5033746;28;20411;-68
2021/07/29 02:16:12;;;;;;;9.30;2.13;;;14.90;96.50;;;;;;5033372;28;20079;-68
2021/07/29 02:18:38;;;;;;;5.03;1.05;;;14.80;96.50;;;;;;5032939;28;20025;-68
2021/07/29 02:21:08;;;;;;;7.03;1.10;;;14.70;96.60;;;;;;5032378;28;20432;-69
2021/07/29 02:23:34;;;;;;;4.97;0.90;;;14.80;96.60;;;;;;5028524;28;20027;-68
2021/07/29 02:26:00;;;;;;;6.05;0.90;;;14.70;96.60;;;;;;5033095;28;20108;-69
2021/07/29 02:28:25;;;;;;;3.58;1.00;;;14.70;96.60;;;;;;5033377;28;20034;-68
2021/07/29 02:30:51;;;;;;;7.20;1.10;;;14.70;96.70;;;;;;5034337;28;20048;-69
2021/07/29 02:33:17;;;;;;;4.50;0.95;;;14.70;96.70;;;;;;5025964;28;20029;-68
2021/07/29 02:35:46;;;;;;;6.75;1.20;;;14.70;96.80;;;;;;5031864;28;20434;-69
2021/07/29 02:38:12;;;;;;;5.15;1.13;;;14.70;96.80;;;;;;5034388;28;20064;-68
2021/07/29 02:40:37;;;;;;;5.78;1.35;;;14.70;96.80;;;;;;5033158;28;20061;-68
2021/07/29 02:43:03;;;;;;;9.18;1.48;;;14.60;96.80;;;;;;5034214;28;20100;-69
2021/07/29 02:45:28;;;;;;;4.25;1.08;;;14.60;96.90;;;;;;5032575;28;20034;-68
2021/07/29 02:47:54;;;;;;;8.18;1.15;;;14.60;96.90;;;;;;5027426;28;20029;-68
2021/07/29 02:50:19;;;;;;;20.05;1.60;;;14.60;97.00;;;;;;5034031;28;20124;-68
2021/07/29 02:52:47;;;;;;;5.20;1.20;;;14.60;97.00;;;;;;5031961;28;20021;-68
2021/07/29 02:55:12;;;;;;;9.05;1.08;;;14.60;97.10;;;;;;5032394;28;20029;-68
2021/07/29 02:57:38;;;;;;;8.15;1.10;;;14.50;97.00;;;;;;5033520;28;20030;-68
2021/07/29 03:00:04;;;;;;;6.32;1.05;;;14.50;97.00;;;;;;5033415;28;20033;-68
2021/07/29 03:02:30;;;;;;;5.90;1.30;;;14.50;97.10;;;;;;5029034;28;20075;-69
2021/07/29 03:04:55;;;;;;;8.68;1.27;;;14.50;97.20;;;;;;5034181;28;20426;-68
2021/07/29 03:07:21;;;;;;;10.05;1.40;;;14.50;97.30;;;;;;5026082;28;20029;-68
2021/07/29 03:09:46;;;;;;;6.93;1.10;;;14.50;97.30;;;;;;5031012;28;20025;-69
2021/07/29 03:12:12;;;;;;;29.77;3.53;;;14.60;97.60;;;;;;5028571;28;20029;-69
2021/07/29 03:14:37;;;;;;;5.65;0.75;;;14.60;97.30;;;;;;5033966;28;20042;-68
2021/07/29 03:17:03;;;;;;;7.63;1.00;;;14.70;97.30;;;;;;5032517;28;20468;-68
2021/07/29 03:19:29;;;;;;;6.80;0.90;;;14.70;97.30;;;;;;5028545;28;20618;-68
2021/07/29 03:21:54;;;;;;;9.07;1.08;;;14.80;97.30;;;;;;5029421;28;20028;-69
2021/07/29 03:24:21;;;;;;;9.10;1.15;;;14.80;97.20;;;;;;5028516;28;20052;-68
2021/07/29 03:26:46;;;;;;;12.57;1.35;;;14.80;97.20;;;;;;5033958;28;20025;-69
2021/07/29 03:29:13;;;;;;;6.45;1.30;;;14.80;97.10;;;;;;5031825;28;20033;-68
2021/07/29 03:31:39;;;;;;;8.75;1.20;;;14.90;97.10;;;;;;5031174;28;20484;-68
2021/07/29 03:34:04;;;;;;;8.55;1.58;;;14.90;97.10;;;;;;5030640;28;20040;-69
2021/07/29 03:36:30;;;;;;;14.60;1.48;;;14.90;97.00;;;;;;5025821;28;20108;-68
2021/07/29 03:38:55;;;;;;;5.60;1.30;;;14.90;97.00;;;;;;5029363;28;20056;-68
2021/07/29 03:41:21;;;;;;;9.25;1.42;;;14.90;97.00;;;;;;5032550;28;20079;-69
2021/07/29 03:43:46;;;;;;;4.35;0.88;;;15.00;97.00;;;;;;5032824;28;20030;-68
2021/07/29 03:46:12;;;;;;;9.60;1.27;;;15.00;97.00;;;;;;5032519;28;20026;-68
2021/07/29 03:48:37;;;;;;;8.30;1.05;;;14.90;97.00;;;;;;5032861;28;20033;-69
2021/07/29 03:51:03;;;;;;;9.57;1.15;;;14.90;97.00;;;;;;5032165;28;20029;-69
2021/07/29 03:53:28;;;;;;;7.10;0.90;;;14.90;97.00;;;;;;5032293;28;20766;-68
2021/07/29 03:55:54;;;;;;;7.32;1.10;;;14.90;97.00;;;;;;5032002;28;20048;-68
2021/07/29 03:58:19;;;;;;;7.78;1.10;;;14.90;97.00;;;;;;5033529;28;20380;-69
2021/07/29 04:00:45;;;;;;;6.47;1.20;;;14.90;97.10;;;;;;5030491;28;20163;-68
2021/07/29 04:03:10;;;;;;;12.13;2.28;;;14.80;97.10;;;;;;5025956;28;20373;-67
2021/07/29 04:05:37;;;;;;;5.65;1.45;;;14.80;97.10;;;;;;5028163;28;20024;-69
2021/07/29 04:08:04;;;;;;;12.13;1.25;;;14.80;97.20;;;;;;5032008;28;22319;-68
2021/07/29 04:10:29;;;;;;;4.78;0.88;;;14.70;97.30;;;;;;5031644;28;20030;-68
2021/07/29 04:12:55;;;;;;;6.50;0.80;;;14.70;97.40;;;;;;5031921;28;20036;-68
2021/07/29 04:15:20;;;;;;;6.47;1.00;;;14.70;97.40;;;;;;5031359;28;20041;-67
2021/07/29 04:17:46;;;;;;;5.07;1.23;;;14.70;97.50;;;;;;5032491;28;20053;-68
2021/07/29 04:20:11;;;;;;;8.90;1.38;;;14.70;97.60;;;;;;5030518;28;20365;-68
2021/07/29 04:22:37;;;;;;;8.05;1.60;;;14.70;97.60;;;;;;5025142;28;20037;-68
2021/07/29 04:25:03;;;;;;;7.47;1.48;;;14.80;97.60;;;;;;5023640;28;20030;-68
2021/07/29 04:27:28;;;;;;;6.45;1.10;;;14.80;97.60;;;;;;5024561;28;20037;-67
2021/07/29 04:29:54;;;;;;;9.13;1.13;;;14.80;97.60;;;;;;5028377;28;20030;-67
2021/07/29 04:32:20;;;;;;;9.45;1.85;;;14.80;97.60;;;;;;5032373;28;20033;-67
2021/07/29 04:34:46;;;;;;;7.07;0.98;;;14.80;97.60;;;;;;5032621;28;20026;-68
2021/07/29 04:37:12;;;;;;;7.57;1.58;;;14.90;97.60;;;;;;5032530;28;20057;-69
2021/07/29 04:39:44;;;;;;;7.30;1.10;;;14.80;97.60;;;;;;5027485;28;20519;-68
2021/07/29 04:42:10;;;;;;;;;;;14.90;97.70;;;;;;5023986;28;20036;-69
2021/07/29 04:44:37;;;;;;;7.05;1.42;;;14.90;97.80;;;;;;5025116;28;19909;-69
2021/07/29 04:47:03;;;;;;;7.72;1.40;;;14.90;97.80;;;;;;5031359;28;20025;-68
2021/07/29 04:49:29;;;;;;;9.77;1.27;;;15.00;97.70;;;;;;5030492;28;20419;-68
2021/07/29 04:51:54;;;;;;;8.75;1.80;;;15.10;97.70;;;;;;5028614;28;20108;-69
2021/07/29 04:54:20;;;;;;;6.25;1.10;;;15.10;97.60;;;;;;5029171;28;20028;-69
2021/07/29 04:56:45;;;;;;;12.98;1.50;;;15.20;97.50;;;;;;5028789;28;20026;-68
2021/07/29 04:59:11;;;;;;;10.02;1.30;;;15.20;97.40;;;;;;5032440;28;20033;-68
2021/07/29 05:01:37;;;;;;;10.35;1.80;;;15.30;97.30;;;;;;5029598;28;20037;-69
2021/07/29 05:04:03;;;;;;;7.38;1.70;;;15.30;97.30;;;;;;5029775;28;20484;-69
2021/07/29 05:06:29;;;;;;;10.48;1.20;;;15.30;97.20;;;;;;5032702;28;20096;-69
2021/07/29 05:08:55;;;;;;;10.25;1.83;;;15.40;97.20;;;;;;5026732;28;20029;-68
2021/07/29 05:11:21;;;;;;;10.50;1.70;;;15.40;97.20;;;;;;5030956;28;20021;-68
2021/07/29 05:13:46;;;;;;;12.07;1.38;;;15.40;97.00;;;;;;5031197;28;20033;-69
2021/07/29 05:16:12;;;;;;;9.23;1.27;;;15.50;97.10;;;;;;5032241;28;20022;-68
2021/07/29 05:18:37;;;;;;;9.82;1.73;;;15.50;97.00;;;;;;5032564;28;20053;-70
2021/07/29 05:21:04;;;;;;;9.80;1.48;;;15.60;96.80;;;;;;5028955;28;20042;-70
2021/07/29 05:23:30;;;;;;;5.18;0.98;;;15.70;96.80;;;;;;5020564;28;20499;-69
2021/07/29 05:25:56;;;;;;;8.40;1.60;;;15.70;96.60;;;;;;5031030;28;20029;-69
2021/07/29 05:28:21;;;;;;;7.22;1.45;;;15.70;96.60;;;;;;5032244;28;20046;-69
2021/07/29 05:30:47;;;;;;;12.55;1.48;;;15.70;96.50;;;;;;5022943;28;20535;-69
2021/07/29 05:33:12;;;;;;;7.88;1.40;;;15.80;96.50;;;;;;5021420;28;20033;-68
2021/07/29 05:35:38;;;;;;;8.15;0.90;;;15.80;96.40;;;;;;5023333;28;20120;-69
2021/07/29 05:38:03;;;;;;;7.82;1.45;;;15.80;96.30;;;;;;5026105;28;20052;-68
2021/07/29 05:40:29;;;;;;;8.13;1.25;;;15.90;96.20;;;;;;5029180;28;20044;-69
2021/07/29 05:42:55;;;;;;;9.27;1.70;;;15.90;96.10;;;;;;5027126;28;20047;-69
2021/07/29 05:45:20;;;;;;;10.82;2.03;;;15.90;96.10;;;;;;5022466;28;20034;-69
2021/07/29 05:47:46;;;;;;;13.88;1.70;;;16.00;96.10;;;;;;5006348;28;20079;-69
2021/07/29 05:50:12;;;;;;;7.30;1.42;;;16.00;95.90;;;;;;5007003;28;20040;-69
2021/07/29 05:52:37;;;;;;;10.10;1.52;;;16.00;95.90;;;;;;5007511;28;20078;-69
2021/07/29 05:55:06;;;;;;;6.80;1.92;;;16.00;96.20;;;;;;5005080;28;20053;-69
2021/07/29 05:57:35;;;;;;;9.90;2.00;;;16.00;96.00;;;;;;5018696;28;20387;-69
2021/07/29 06:00:00;;;;;;;6.85;1.48;;;16.00;96.00;;;;;;5031839;28;20036;-69
2021/07/29 06:02:26;;;;;;;14.88;2.33;;;16.00;96.00;;;;;;5035660;28;20425;-71
2021/07/29 06:04:52;;;;;;;11.15;2.00;;;16.10;95.90;;;;;;5035245;28;20072;-69
2021/07/29 06:07:18;;;;;;;9.85;1.60;;;16.10;95.80;;;;;;5033991;28;20033;-70
2021/07/29 06:09:44;;;;;;;7.38;1.48;;;16.20;95.70;;;;;;5032213;28;20057;-69
2021/07/29 06:12:09;;;;;;;13.82;2.40;;;16.10;95.60;;;;;;5031916;28;20120;-69
2021/07/29 06:14:35;;;;;;;12.45;1.65;;;16.20;95.70;;;;;;5034447;28;20125;-68
2021/07/29 06:17:01;;;;;;;12.60;1.30;;;16.20;95.60;;;;;;5032783;28;20040;-69
2021/07/29 06:19:31;;;;;;;10.88;1.60;;;16.30;95.60;;;;;;5035572;28;20484;-68
2021/07/29 06:21:57;;;;;;;9.52;1.50;;;16.50;95.50;;;;;;5032869;28;20148;-69
2021/07/29 06:24:23;;;;;;;10.85;1.60;;;16.50;95.30;;;;;;5032563;28;20160;-69
2021/07/29 06:26:49;;;;;;;11.75;2.20;;;16.70;95.10;;;;;;5025443;28;20029;-68
2021/07/29 06:29:14;;;;;;;10.63;1.67;;;16.80;94.80;;;;;;5032575;28;20037;-69
2021/07/29 06:31:40;;;;;;;11.32;1.42;;;16.80;94.50;;;;;;5032342;28;20373;-70
2021/07/29 06:34:05;;;;;;;8.52;1.42;;;16.80;94.30;;;;;;5029603;28;20107;-69
2021/07/29 06:36:31;;;;;;;8.98;1.20;;;16.90;94.40;;;;;;5028082;28;20495;-69
2021/07/29 06:38:59;;;;;;;14.82;2.67;;;17.00;94.30;;;;;;5027083;28;20404;-70
2021/07/29 06:41:25;;;;;;;11.10;1.50;;;17.00;93.90;;;;;;5024322;28;20121;-69
2021/07/29 06:43:50;;;;;;;5.82;1.50;;;17.00;94.10;;;;;;5024012;28;20118;-70
2021/07/29 06:46:16;;;;;;;17.40;1.45;;;17.10;93.80;;;;;;5031045;28;20029;-69
2021/07/29 06:48:41;;;;;;;14.70;1.60;;;17.10;93.60;;;;;;5035057;28;20028;-70
2021/07/29 06:51:08;;;;;;;12.50;1.75;;;17.10;93.60;;;;;;5034191;28;20063;-70
2021/07/29 06:53:37;;;;;;;15.77;1.70;;;17.10;93.90;;;;;;5032394;28;20022;-67
2021/07/29 06:56:04;;;;;;;13.35;1.58;;;17.20;93.30;;;;;;5032971;28;20052;-67
2021/07/29 06:58:29;;;;;;;9.70;1.30;;;17.20;93.30;;;;;;5032827;28;20069;-68
2021/07/29 07:00:55;;;;;;;6.65;1.30;;;17.20;93.20;;;;;;5031712;28;20056;-69
2021/07/29 07:03:21;;;;;;;7.75;1.30;;;17.30;93.40;;;;;;5034417;28;20068;-66
2021/07/29 07:05:47;;;;;;;7.85;1.60;;;17.50;93.40;;;;;;5029481;28;20030;-67
2021/07/29 07:08:13;;;;;;;6.28;1.00;;;17.70;93.00;;;;;;5028566;28;20382;-67
2021/07/29 07:10:39;;;;;;;9.63;1.33;;;17.90;92.10;;;;;;5034516;28;20214;-67
2021/07/29 07:13:05;;;;;;;7.80;0.98;;;17.90;92.10;;;;;;5032317;28;20068;-67
2021/07/29 07:15:30;;;;;;;8.73;1.20;;;18.00;91.70;;;;;;5022068;28;20052;-68
2021/07/29 07:17:56;;;;;;;8.68;1.27;;;18.10;91.70;;;;;;5034105;28;20032;-69
2021/07/29 07:20:23;;;;;;;8.32;1.98;;;18.20;91.50;;;;;;5030753;28;20029;-68
2021/07/29 07:22:49;;;;;;;12.10;1.33;;;18.30;91.20;;;;;;5032130;28;20065;-67
2021/07/29 07:25:15;;;;;;;9.30;1.40;;;18.30;90.50;;;;;;5021367;28;20049;-68
2021/07/29 07:27:40;;;;;;;5.55;1.20;;;18.30;90.80;;;;;;5033284;28;20527;-68
2021/07/29 07:30:06;;;;;;;11.57;1.30;;;18.50;90.20;;;;;;5028214;28;20091;-68
2021/07/29 07:32:32;;;;;;;9.02;1.15;;;18.50;90.00;;;;;;5025806;28;20026;-67
2021/07/29 07:34:57;;;;;;;12.85;1.63;;;18.50;90.20;;;;;;5031676;28;20084;-69
2021/07/29 07:37:23;;;;;;;10.13;1.35;;;18.60;89.80;;;;;;5032028;28;20041;-68
2021/07/29 07:39:48;;;;;;;9.40;1.40;;;18.60;89.70;;;;;;5032428;28;20030;-69
2021/07/29 07:42:15;;;;;;;8.88;1.65;;;18.60;88.70;;;;;;5033212;28;20427;-68
2021/07/29 07:44:40;;;;;;;9.23;0.95;;;18.50;89.00;;;;;;5032946;28;20494;-69
2021/07/29 07:47:06;;;;;;;11.07;1.60;;;18.50;87.50;;;;;;5032000;28;20041;-68
2021/07/29 07:49:33;;;;;;;11.80;1.50;;;18.50;87.60;;;;;;5032296;28;20434;-68
2021/07/29 07:51:58;;;;;;;9.57;1.50;;;18.40;88.10;;;;;;5031547;28;20032;-67
2021/07/29 07:54:24;;;;;;;8.75;1.55;;;18.50;88.20;;;;;;5033692;28;20026;-67
2021/07/29 07:56:49;;;;;;;7.15;1.20;;;18.50;87.90;;;;;;5033083;28;20053;-68
2021/07/29 07:59:15;;;;;;;11.43;1.40;;;18.50;88.00;;;;;;5033473;28;20040;-68
2021/07/29 08:01:41;;;;;;;9.52;1.88;;;18.60;88.30;;;;;;5033151;28;20450;-68
2021/07/29 08:04:06;;;;;;;6.57;1.70;;;18.70;86.80;;;;;;5031069;28;20452;-68
2021/07/29 08:06:32;;;;;;;8.38;1.00;;;18.70;86.20;;;;;;5030710;28;20113;-68
2021/07/29 08:08:57;;;;;;;8.57;1.00;;;18.70;86.60;;;;;;5033864;28;20029;-68
2021/07/29 08:11:23;;;;;;;6.10;1.52;;;18.70;86.00;;;;;;5026239;28;20072;-69
2021/07/29 08:13:49;;;;;;;7.72;1.08;;;18.70;84.30;;;;;;5022489;28;20028;-69
2021/07/29 08:16:14;;;;;;;6.20;1.50;;;18.60;84.30;;;;;;5025116;28;20072;-70
2021/07/29 08:18:40;;;;;;;10.90;1.15;;;18.60;84.10;;;;;;5032397;28;20045;-71
2021/07/29 08:21:12;;;;;;;8.68;1.10;;;18.70;84.60;;;;;;5029833;28;20029;-69
2021/07/29 08:23:41;;;;;;;4.45;0.90;;;19.00;84.00;;;;;;5030716;28;20025;-69
2021/07/29 08:26:07;;;;;;;4.35;0.85;;;19.10;82.00;;;;;;5032319;28;20384;-68
2021/07/29 08:28:35;;;;;;;5.13;0.85;;;19.20;80.20;;;;;;5032838;28;20060;-69
2021/07/29 08:31:01;;;;;;;6.80;0.95;;;19.20;80.00;;;;;;5029281;28;20025;-70
2021/07/29 08:33:26;;;;;;;7.45;0.80;;;19.20;80.50;;;;;;5031672;28;20017;-70
2021/07/29 08:35:52;;;;;;;12.18;1.13;;;19.10;80.60;;;;;;5029933;28;20426;-68
2021/07/29 08:38:17;;;;;;;10.25;1.17;;;19.00;80.70;;;;;;5032937;28;20017;-69
2021/07/29 08:40:43;;;;;;;5.03;0.95;;;19.10;81.00;;;;;;5032184;28;20083;-68
2021/07/29 08:43:09;;;;;;;5.53;0.70;;;19.10;79.50;;;;;;5020670;28;20496;-69
2021/07/29 08:45:43;;;;;;;4.38;0.90;;;19.20;78.20;;;;;;5031890;28;20030;-70
2021/07/29 08:48:10;;;;;;;4.30;0.80;;;19.20;78.60;;;;;;5031739;28;20030;-69
2021/07/29 08:50:36;;;;;;;7.47;0.93;;;19.20;78.90;;;;;;5031848;28;20029;-71
2021/07/29 08:53:02;;;;;;;7.03;0.80;;;19.30;78.10;;;;;;5032890;28;20025;-69
2021/07/29 08:55:27;;;;;;;7.70;0.85;;;19.20;78.30;;;;;;5031550;28;20072;-68
2021/07/29 08:57:53;;;;;;;5.15;1.15;;;19.20;79.40;;;;;;5031668;28;20033;-69
2021/07/29 09:00:18;;;;;;;6.72;1.00;;;19.30;78.90;;;;;;5023410;28;20037;-69
2021/07/29 09:02:44;;;;;;;7.57;0.80;;;19.50;79.10;;;;;;5024638;28;20365;-69
2021/07/29 09:05:11;;;;;;;8.32;0.95;;;19.80;78.40;;;;;;5028837;28;20116;-70
2021/07/29 09:07:37;;;;;;;6.82;1.13;;;20.00;76.50;;;;;;5029797;28;20034;-69
2021/07/29 09:10:21;;;;;;;5.65;1.65;;;20.10;76.60;;;;;;5031937;28;20120;-69
2021/07/29 09:13:08;;;;;;;5.25;0.60;;;20.20;74.00;;;;;;5023669;28;20026;-68
2021/07/29 09:15:34;;;;;;;7.07;0.90;;;20.00;74.20;;;;;;5033732;28;20041;-69
2021/07/29 09:18:00;;;;;;;7.43;1.02;;;19.70;74.80;;;;;;5034758;28;20033;-68
2021/07/29 09:20:25;;;;;;;7.07;1.00;;;19.50;75.40;;;;;;5036614;28;20037;-69
2021/07/29 09:22:52;;;;;;;5.57;0.75;;;19.50;76.20;;;;;;5034009;28;20395;-69
2021/07/29 09:25:22;;;;;;;5.18;0.75;;;19.40;74.20;;;;;;5035530;28;20117;-69
2021/07/29 09:27:49;;;;;;;6.50;0.90;;;19.40;74.80;;;;;;5036336;28;20034;-69
2021/07/29 09:30:25;;;;;;;6.82;0.75;;;19.50;74.80;;;;;;5033167;28;20104;-68
2021/07/29 09:33:02;;;;;;;9.07;0.90;;;19.50;73.90;;;;;;5029371;28;20472;-70
2021/07/29 09:35:52;;;;;;;5.07;0.85;;;19.30;74.80;;;;;;5035102;28;20056;-69
2021/07/29 09:38:30;;;;;;;7.38;1.30;;;19.30;75.50;;;;;;5035218;28;20505;-70
2021/07/29 09:41:01;;;;;;;8.48;0.68;;;19.30;75.90;;;;;;5036241;28;20040;-70
2021/07/29 09:43:37;;;;;;;7.13;0.95;;;19.30;76.30;;;;;;5033677;28;20037;-68
2021/07/29 09:46:14;;;;;;;7.68;1.02;;;19.50;74.60;;;;;;5035205;28;20040;-69
2021/07/29 09:48:40;;;;;;;7.40;0.70;;;19.60;74.00;;;;;;5036179;28;20037;-69
2021/07/29 09:51:09;;;;;;;4.80;0.70;;;19.60;73.40;;;;;;5034015;28;20042;-69
2021/07/29 09:53:35;;;;;;;6.20;1.00;;;19.70;72.30;;;;;;5033566;28;20060;-70
2021/07/29 09:56:08;;;;;;;8.32;1.02;;;19.80;71.70;;;;;;5035228;28;20492;-70
2021/07/29 09:58:40;;;;;;;5.43;1.08;;;20.00;71.90;;;;;;5035914;28;20084;-69
2021/07/29 10:01:06;;;;;;;;;;;20.10;72.10;;;;;;5033733;28;20030;-70
2021/07/29 10:03:34;;;;;;;9.07;0.80;;;20.20;72.00;;;;;;5033097;28;19991;-68
2021/07/29 10:06:07;;;;;;;6.85;0.90;;;20.30;71.80;;;;;;5033207;28;20479;-68
2021/07/29 10:08:36;;;;;;;4.28;0.70;;;20.40;70.50;;;;;;5034485;28;20041;-68
2021/07/29 10:11:07;;;;;;;3.95;1.00;;;20.60;69.40;;;;;;5032930;28;20525;-67
2021/07/29 10:13:37;;;;;;;11.55;1.02;;;20.60;68.60;;;;;;5015838;28;20025;-68
2021/07/29 10:16:07;;;;;;;7.97;1.13;;;20.60;68.90;;;;;;5028554;28;20049;-67
2021/07/29 10:18:51;;;;;;;8.52;0.80;;;20.80;69.70;;;;;;5024484;28;20075;-70
2021/07/29 10:21:28;;;;;;;4.45;0.70;;;21.10;68.40;;;;;;5027310;28;20026;-67
2021/07/29 10:23:56;;;;;;;6.47;0.75;;;21.20;68.20;;;;;;5035422;28;20100;-67
2021/07/29 10:26:22;;;;;;;4.63;0.75;;;21.10;67.60;;;;;;5034350;28;20018;-68
2021/07/29 10:28:48;;;;;;;5.85;1.00;;;21.00;66.60;;;;;;5023881;28;20037;-68
2021/07/29 10:31:16;;;;;;;11.10;1.13;;;20.60;66.80;;;;;;5020328;28;20440;-69
2021/07/29 10:33:43;;;;;;;8.63;0.80;;;20.50;67.60;;;;;;5035225;28;20018;-68
2021/07/29 10:36:45;;;;;;;6.82;0.80;;;20.30;68.00;;;;;;5034723;28;20412;-67
2021/07/29 10:39:11;;;;;;;8.38;0.80;;;20.30;68.90;;;;;;5034330;28;20025;-68
2021/07/29 10:41:41;;;;;;;8.05;0.98;;;20.20;68.90;;;;;;5035114;28;20032;-67
2021/07/29 10:44:07;;;;;;;5.80;0.80;;;20.10;69.60;;;;;;5031824;28;20021;-68
2021/07/29 10:47:00;;;;;;;6.70;0.80;;;20.20;70.60;;;;;;5031738;28;20025;-68
2021/07/29 10:49:44;;;;;;;7.45;1.08;;;20.50;70.20;;;;;;5029012;28;20041;-68
2021/07/29 10:52:14;;;;;;;9.27;1.30;;;20.70;69.10;;;;;;5032350;28;20040;-69
2021/07/29 10:54:42;;;;;;;5.57;0.73;;;20.80;69.60;;;;;;5033543;28;20026;-69
2021/07/29 10:57:09;;;;;;;9.88;1.30;;;20.70;69.80;;;;;;5029265;28;20025;-68
2021/07/29 10:59:36;;;;;;;7.25;1.60;;;20.80;69.80;;;;;;5033326;28;20029;-69
2021/07/29 11:02:06;;;;;;;10.70;1.85;;;20.70;69.50;;;;;;5034471;28;20025;-68
2021/07/29 11:04:54;;;;;;;8.10;1.20;;;20.60;68.80;;;;;;5034635;28;20077;-69
2021/07/29 11:07:19;;;;;;;8.07;1.17;;;20.40;68.50;;;;;;5032523;28;20086;-70
2021/07/29 11:09:46;;;;;;;5.22;1.30;;;20.10;69.80;;;;;;5034104;28;20033;-67
2021/07/29 11:12:16;;;;;;;8.30;1.10;;;20.00;70.90;;;;;;5033885;28;20026;-68
2021/07/29 11:14:42;;;;;;;7.47;1.33;;;19.90;70.50;;;;;;5032539;28;20053;-68
2021/07/29 11:17:09;;;;;;;7.03;0.75;;;19.70;70.60;;;;;;5034383;28;20036;-69
2021/07/29 11:19:44;;;;;;;10.52;2.15;;;19.60;71.30;;;;;;5033870;28;20029;-69
2021/07/29 11:22:10;;;;;;;4.70;0.82;;;19.30;73.30;;;;;;5032818;28;20407;-69
2021/07/29 11:24:37;;;;;;;8.13;1.48;;;19.20;74.80;;;;;;5032773;28;20053;-70
2021/07/29 11:27:06;;;;;;;5.43;1.00;;;19.00;76.20;;;;;;5033269;28;20079;-71
2021/07/29 11:29:32;;;;;;;2.83;0.70;;;19.00;77.60;;;;;;5033786;28;20029;-70
2021/07/29 11:31:58;;;;;;;6.45;1.02;;;19.00;77.90;;;;;;5034093;28;20028;-69
2021/07/29 11:34:34;;;;;;;6.38;1.20;;;18.90;78.60;;;;;;5032283;28;20376;-68
2021/07/29 11:37:03;;;;;;;8.10;1.00;;;19.00;78.60;;;;;;5033821;28;20021;-69
2021/07/29 11:39:37;;;;;;;4.97;1.15;;;19.00;78.10;;;;;;5032340;28;20119;-69
2021/07/29 11:42:03;;;;;;;9.55;1.08;;;19.10;77.40;;;;;;5032943;28;20029;-68
2021/07/29 11:44:40;;;;;;;9.55;1.38;;;19.20;77.80;;;;;;5032487;28;20056;-69
2021/07/29 11:47:06;;;;;;;9.43;1.30;;;19.30;78.30;;;;;;5030778;28;20031;-69
2021/07/29 11:49:43;;;;;;;6.20;0.90;;;19.50;77.40;;;;;;5033728;28;20052;-68
2021/07/29 11:52:10;;;;;;;9.40;1.23;;;19.80;76.80;;;;;;5032271;28;20029;-69
2021/07/29 11:54:38;;;;;;;5.32;1.13;;;20.00;76.70;;;;;;5032752;28;20447;-70
2021/07/29 11:57:05;;;;;;;6.10;1.13;;;20.20;75.10;;;;;;5033387;28;20403;-69
2021/07/29 11:59:42;;;;;;;9.85;1.20;;;20.30;73.60;;;;;;5031996;28;20025;-68
2021/07/29 12:02:09;;;;;;;7.65;0.90;;;20.40;72.40;;;;;;5032605;28;20484;-69
2021/07/29 12:04:38;;;;;;;7.65;1.58;;;20.40;72.70;;;;;;5033407;28;20025;-68
2021/07/29 12:07:05;;;;;;;7.13;1.63;;;20.50;72.20;;;;;;5016367;28;20033;-69
2021/07/29 12:09:34;;;;;;;5.95;0.90;;;20.50;71.90;;;;;;5025112;28;20082;-68
2021/07/29 12:12:01;;;;;;;6.75;0.90;;;20.60;70.70;;;;;;5032284;28;20116;-68
2021/07/29 12:14:28;;;;;;;6.80;0.95;;;20.70;71.00;;;;;;5031461;28;20041;-68
2021/07/29 12:16:54;;;;;;;9.25;1.20;;;20.90;70.00;;;;;;5030483;28;20021;-68
2021/07/29 12:19:21;;;;;;;4.75;0.73;;;21.00;68.90;;;;;;5031814;28;20033;-67
2021/07/29 12:21:47;;;;;;;9.55;1.02;;;21.10;69.70;;;;;;5027815;28;20029;-69
2021/07/29 12:24:14;;;;;;;10.77;1.48;;;21.30;67.90;;;;;;5032962;28;20029;-69
2021/07/29 12:26:40;;;;;;;9.00;1.35;;;21.40;67.50;;;;;;5033183;28;20057;-69
2021/07/29 12:29:05;;;;;;;11.00;1.67;;;21.50;68.00;;;;;;5033273;28;20033;-70
2021/07/29 12:31:32;;;;;;;13.18;1.75;;;21.60;67.60;;;;;;5031738;28;20075;-69
2021/07/29 12:34:06;;;;;;;12.15;2.00;;;21.70;68.30;;;;;;5032555;28;20018;-67
2021/07/29 12:36:46;;;;;;;9.63;1.40;;;21.80;67.70;;;;;;5028887;28;20029;-67
2021/07/29 12:39:13;;;;;;;10.50;1.42;;;22.00;66.80;;;;;;5032519;28;20056;-67
2021/07/29 12:41:41;;;;;;;11.02;2.00;;;22.20;66.60;;;;;;5032166;28;20462;-68
2021/07/29 12:44:12;;;;;;;7.00;1.10;;;22.30;66.10;;;;;;5032676;28;20025;-68
2021/07/29 12:46:38;;;;;;;5.63;1.27;;;22.40;65.40;;;;;;5032170;28;20034;-67